• Join FlightAware (Why Join?)
  • Login
  • US Flag 
05:49AM EDT


 

Airport Tracker/Info


-or-


 

Live Flight TrackerFlight Track Log ✈ DAL1245 ✈ 31-Aug-2013 ✈ KMSO - KMSP

Flight Track Log - Related Links

Times and Time Zones

All times are in EDT time to prevent confusion due to time zone crossing. See the DAL1245 flight status page for this flight to view local times or setup timezone preferences in your user account.

Time Position Orientation Groundspeed Altitude Reporting Facility
EDT Latitude Longitude Course Direction KTS MPH feet Rate Location/Type
08:12AM 46.9289 -114.1147 103° East 151 174 4,100  Level Salt Lake Center
08:13AM 46.9581 -114.1692 308° West 168 193 6,600 2,280 Climbing Salt Lake Center
08:14AM 46.9883 -114.2189 312° West 166 191 8,700 2,040 Climbing Salt Lake Center
08:15AM 46.7613 -112.9954 102° East  Level FlightAware Approximate
08:15AM 47.0183 -114.2697 311° West 165 190 10,700  Level Salt Lake Center
08:16AM 46.7354 -112.8146 102° East  Level FlightAware Approximate
08:16AM 47.0542 -114.3317 310° West 198 228 12,100  Level Salt Lake Center
08:17AM 46.7074 -112.6347 103° East  Level FlightAware Approximate
08:17AM 47.0467 -114.4303 264° West 288 331 13,600  Level Salt Lake Center
08:18AM 46.9639 -114.4350 182° South 341 392 15,700 1,800 Climbing Salt Lake Center
08:19AM 46.9464 -114.2869 100° East 402 463 17,300 1,800 Climbing Salt Lake Center
08:20AM 46.9642 -114.1167 81° East 423 487 19,300 1,680 Climbing Salt Lake Center
08:21AM 46.9497 -113.9614 98° East 456 525 20,800 1,680 Climbing Salt Lake Center
08:22AM 46.9400 -113.7778 94° East 456 525 22,800 1,800 Climbing Salt Lake Center
08:23AM 46.9311 -113.5892 94° East 468 539 24,400 1,620 Climbing Salt Lake Center
08:24AM 46.9203 -113.3947 95° East 480 552 26,100 1,560 Climbing Salt Lake Center
08:25AM 46.9092 -113.1569 94° East 494 568 27,600 1,380 Climbing Salt Lake Center
08:26AM 46.8961 -112.9542 95° East 504 580 28,900 1,140 Climbing Salt Lake Center
08:27AM 46.8878 -112.7683 94° East 512 589 30,000 1,200 Climbing Salt Lake Center
08:28AM 46.8753 -112.5617 95° East 513 590 31,400 1,080 Climbing Salt Lake Center
08:29AM 46.8631 -112.3542 95° East 515 593 32,200 1,020 Climbing Salt Lake Center
08:30AM 46.8500 -112.1439 95° East 520 598 33,500 1,260 Climbing Salt Lake Center
08:31AM 46.8378 -111.9358 95° East 520 598 34,800 1,080 Climbing Salt Lake Center
08:32AM 46.8236 -111.7286 96° East 517 595 35,700 840 Climbing Salt Lake Center
08:33AM 46.8103 -111.5200 95° East 520 598 36,500 600 Climbing Salt Lake Center
08:34AM 46.7961 -111.3128 96° East 519 597 37,000 180 Climbing Salt Lake Center
08:35AM 46.7786 -111.0678 96° East 512 589 36,900  Descending Salt Lake Center
08:36AM 46.7647 -110.8564 95° East 524 603 37,000  Climbing Salt Lake Center
08:37AM 46.7494 -110.6500 96° East 519 597 37,000  Level Salt Lake Center
08:38AM 46.7319 -110.4456 97° East 512 589 37,000  Level Salt Lake Center
08:39AM 46.7167 -110.2361 96° East 519 597 37,000  Level Salt Lake Center
08:40AM 46.7003 -110.0294 97° East 524 603 37,000  Level Salt Lake Center
08:41AM 46.6839 -109.8206 96° East 521 600 37,000  Level Salt Lake Center
08:42AM 46.6667 -109.6117 97° East 522 601 37,100  Climbing Salt Lake Center
08:43AM 46.6497 -109.4011 97° East 522 601 37,000 -60 Descending Salt Lake Center
08:44AM 46.6314 -109.1903 97° East 524 603 37,000  Level Salt Lake Center
08:45AM 46.6131 -108.9819 97° East 521 600 37,000  Level Salt Lake Center
08:46AM 46.5944 -108.7739 97° East 520 598 37,000  Level Salt Lake Center
08:47AM 46.5750 -108.5658 98° East 520 598 37,000  Level Salt Lake Center
08:48AM 46.5547 -108.3583 98° East 520 598 37,000  Level Salt Lake Center
08:49AM 46.5342 -108.1517 98° East 518 596 37,000  Level Salt Lake Center
08:50AM 46.5144 -107.9450 98° East 517 595 37,000  Level Salt Lake Center
08:51AM 46.4936 -107.7397 98° East 516 594 37,000  Level Salt Lake Center
08:52AM 46.4728 -107.5336 98° East 516 594 37,000  Level Salt Lake Center
08:53AM 46.4514 -107.3281 99° East 516 594 37,000  Level Salt Lake Center
08:54AM 46.4294 -107.1189 99° East 521 600 37,000  Level Salt Lake Center
08:55AM 46.4069 -106.9114 99° East 522 601 37,000  Level Salt Lake Center
08:56AM 46.3842 -106.7036 99° East 522 601 37,000  Level Salt Lake Center
08:57AM 46.3611 -106.4964 99° East 522 601 37,000  Level Salt Lake Center
08:58AM 46.3361 -106.2872 100° East 525 604 37,000  Level Salt Lake Center
08:59AM 46.3069 -106.0381 100° East 525 604 37,000  Level Salt Lake Center
09:00AM 46.2819 -105.8317 100° East 524 603 37,000  Level Salt Lake Center
09:01AM 46.2569 -105.6253 100° East 523 602 37,000  Level Salt Lake Center
09:02AM 46.2325 -105.4192 100° East 521 600 37,000  Level Salt Lake Center
09:03AM 46.2061 -105.2133 100° East 522 601 37,100  Climbing Salt Lake Center
09:04AM 46.1822 -105.0119 100° East 516 594 37,000 -60 Descending Salt Lake Center
09:05AM 46.1561 -104.8075 100° East 516 594 37,000  Level Salt Lake Center
09:06AM 46.1300 -104.6053 100° East 516 594 37,000 -60 Level Salt Lake Center
09:07AM 46.1081 -104.4336 100° East 516 594 36,900 -60 Descending Salt Lake Center
09:08AM 46.0772 -104.1942 100° East 512 589 36,900  Level Salt Lake Center
09:09AM 46.0492 -103.9925 101° East 514 592 37,000  Climbing Salt Lake Center
09:10AM 46.0217 -103.7917 101° East 515 593 37,000  Level Salt Lake Center
09:11AM 45.9936 -103.5892 101° East 516 594 37,000  Level Salt Lake Center
09:12AM 45.9653 -103.3889 101° East 516 594 37,000  Level Salt Lake Center
09:13AM 45.9375 -103.1853 101° East 518 596 37,000  Level Salt Lake Center
09:14AM 45.9158 -103.0283 101° East 518 596 37,000 -60 Level Minneapolis Center
09:15AM 45.8867 -102.8278 102° East 516 594 36,900  Descending Minneapolis Center
09:16AM 45.8578 -102.6386 102° East 516 594 37,000 60 Climbing Minneapolis Center
09:17AM 45.8275 -102.4383 102° East 514 592 37,100  Climbing Minneapolis Center
09:18AM 45.7922 -102.2019 102° East 509 586 37,000 -60 Descending Minneapolis Center
09:19AM 45.7619 -102.0094 103° East 501 577 37,000  Level Minneapolis Center
09:20AM 45.7317 -101.8153 103° East 499 574 37,000  Level Minneapolis Center
09:21AM 45.7078 -101.6617 103° East 497 572 37,000  Level Minneapolis Center
09:22AM 45.6714 -101.4297 103° East 497 572 37,000  Level Minneapolis Center
09:23AM 45.6397 -101.2383 103° East 496 571 37,000  Level Minneapolis Center
09:24AM 45.6114 -101.0431 102° East 499 574 37,000  Level Minneapolis Center
09:25AM 45.5803 -100.8528 103° East 494 568 37,000  Level Minneapolis Center
09:26AM 45.5464 -100.6589 104° East 499 574 37,000  Level Minneapolis Center
09:27AM 45.5147 -100.4656 103° East 499 574 37,000  Level Minneapolis Center
09:28AM 45.4814 -100.2722 104° East 500 575 37,000  Level Minneapolis Center
09:29AM 45.4486 -100.0794 104° East 498 573 37,000  Level Minneapolis Center
09:30AM 45.4144 -99.8856 104° East 498 573 37,000  Level Minneapolis Center
09:31AM 45.3814 -99.6931 104° East 498 573 37,000  Level Minneapolis Center
09:32AM 45.3400 -99.4653 104° East 494 568 37,000  Level Minneapolis Center
09:33AM 45.3056 -99.2783 105° East 491 565 37,000  Level Minneapolis Center
09:34AM 45.2647 -99.0564 105° East 486 559 37,000  Level Minneapolis Center
09:35AM 45.2308 -98.8714 105° East 484 557 37,000  Level Minneapolis Center
09:37AM 45.1972 -98.6861 104° East 485 558 37,000  Level Minneapolis Center
09:38AM 45.1622 -98.4997 105° East 486 559 37,000  Level Minneapolis Center
09:39AM 45.1269 -98.3136 105° East 489 563 37,000 -240 Level Minneapolis Center
09:40AM 45.0914 -98.1278 105° East 489 563 36,600 -720 Descending Minneapolis Center
09:41AM 45.0539 -97.9397 106° East 484 557 35,600 -840 Descending Minneapolis Center
09:42AM 45.0200 -97.7592 105° East 478 550 35,000 -300 Descending Minneapolis Center
09:43AM 44.9833 -97.5794 106° East 477 549 35,000  Level Minneapolis Center
09:44AM 44.9403 -97.3625 106° East 478 550 35,000  Level Minneapolis Center
09:45AM 44.9033 -97.1828 106° East 477 549 35,000  Level Minneapolis Center
09:46AM 44.8750 -97.0397 106° East 476 548 35,000  Level Minneapolis Center
09:47AM 44.8314 -96.8250 106° East 474 545 35,000  Level Minneapolis Center
09:48AM 44.8156 -96.6394 97° East 475 547 35,000  Level Minneapolis Center
09:49AM 44.8089 -96.4539 93° East 474 545 35,000  Level Minneapolis Center
09:50AM 44.8014 -96.2672 93° East 476 548 35,000  Level Minneapolis Center
09:51AM 44.7944 -96.0806 93° East 475 547 35,000  Level Minneapolis Center
09:52AM 44.7869 -95.9322 94° East 474 545 35,000 -840 Level Minneapolis Center
09:53AM 44.7775 -95.7103 93° East 473 544 33,400 -2,220 Descending Minneapolis Center
09:54AM 44.7692 -95.5231 94° East 477 549 30,100 -3,300 Descending Minneapolis Center
09:55AM 44.7561 -95.2614 94° East 478 550 26,000 -3,240 Descending Minneapolis Center
09:56AM 44.7461 -95.0842 94° East 460 529 23,500 -2,460 Descending Minneapolis Center
09:57AM 44.7381 -94.9144 94° East 443 510 21,000 -2,460 Descending Minneapolis Center
09:58AM 44.7297 -94.7514 94° East 427 491 18,500 -2,340 Descending Minneapolis Center
09:59AM 44.7217 -94.6067 94° East 417 480 16,300 -2,520 Descending Minneapolis Center
10:00AM 44.7097 -94.4175 95° East 405 466 13,400 -2,280 Descending Minneapolis Center
10:01AM 44.7006 -94.2681 95° East 387 445 11,700 -1,200 Descending Minneapolis Center
10:02AM 44.6981 -94.1253 91° East 369 425 10,800 -1,020 Descending Minneapolis Center
10:04AM 44.7269 -94.0081 71° East 313 360 9,500 -1,740 Descending Minneapolis Center
10:05AM 44.7742 -93.8900 61° Northeast 289 333 7,300 -1,260 Descending Minneapolis Center
10:06AM 44.8242 -93.8047 50° Northeast 281 323 7,000 -180 Descending Minneapolis Center
10:07AM 44.8711 -93.7217 51° Northeast 271 312 7,000 -180 Level Minneapolis Center
10:08AM 44.9111 -93.6492 52° Northeast 236 272 6,700 -960 Descending Minneapolis Center
10:09AM 44.9517 -93.5772 51° Northeast 235 270 5,100 -1,380 Descending Minneapolis Center
10:10AM 44.9539 -93.4739 88° East 222 255 3,900 -900 Descending Minneapolis Center
10:11AM 44.9475 -93.3958 97° East 199 229 3,300 -780 Descending Minneapolis Center
10:12AM 44.9314 -93.3350 110° East 160 184 2,400 -840 Descending Minneapolis Center
10:13AM 44.9119 -93.2897 121° Southeast 137 158 1,700 -720 Descending Minneapolis Center